createdAt,value
2022-08-03T00:00:26.209Z,21.83
2022-08-03T00:02:53.029Z,21.87
2022-08-03T00:05:19.824Z,21.84
2022-08-03T00:07:46.217Z,21.86
2022-08-03T00:10:15.030Z,21.74
2022-08-03T00:12:41.409Z,21.75
2022-08-03T00:15:11.142Z,21.72
2022-08-03T00:17:53.539Z,21.63
2022-08-03T00:20:21.856Z,21.62
2022-08-03T00:22:49.441Z,21.61
2022-08-03T00:25:15.992Z,21.61
2022-08-03T00:27:42.482Z,21.60
2022-08-03T00:30:09.616Z,21.61
2022-08-03T00:32:36.073Z,21.54
2022-08-03T00:35:07.941Z,21.53
2022-08-03T00:37:40.815Z,21.51
2022-08-03T00:40:10.517Z,21.49
2022-08-03T00:42:46.867Z,21.52
2022-08-03T00:45:13.339Z,21.52
2022-08-03T00:47:39.737Z,21.42
2022-08-03T00:50:06.602Z,21.46
2022-08-03T00:52:33.021Z,21.47
2022-08-03T00:55:00.962Z,21.48
2022-08-03T00:57:30.005Z,21.42
2022-08-03T00:59:56.463Z,21.44
2022-08-03T01:02:22.941Z,21.41
2022-08-03T01:04:49.588Z,21.40
2022-08-03T01:07:35.785Z,21.36
2022-08-03T01:10:32.807Z,21.34
2022-08-03T01:13:13.988Z,21.36
2022-08-03T01:16:15.364Z,21.29
2022-08-03T01:18:52.516Z,21.25
2022-08-03T01:21:26.915Z,21.21
2022-08-03T01:24:22.547Z,21.18
2022-08-03T01:27:10.739Z,21.14
2022-08-03T01:29:49.584Z,21.13
2022-08-03T01:32:59.977Z,21.07
2022-08-03T01:35:13.018Z,21.02
2022-08-03T01:37:45.847Z,20.98
2022-08-03T01:40:14.243Z,21.00
2022-08-03T01:42:42.679Z,20.98
2022-08-03T01:45:12.644Z,21.01
2022-08-03T01:47:40.483Z,20.96
2022-08-03T01:50:08.957Z,20.95
2022-08-03T01:52:40.381Z,20.91
2022-08-03T01:55:08.678Z,20.91
2022-08-03T01:58:06.199Z,20.92
2022-08-03T02:00:25.831Z,20.82
2022-08-03T02:02:54.684Z,20.79
2022-08-03T02:05:22.051Z,20.81
2022-08-03T02:07:49.904Z,20.74
2022-08-03T02:10:34.345Z,20.81
2022-08-03T02:13:05.081Z,20.84
2022-08-03T02:15:33.889Z,20.81
2022-08-03T02:18:03.147Z,20.77
2022-08-03T02:20:33.139Z,20.80
2022-08-03T02:23:00.129Z,20.74
2022-08-03T02:25:27.048Z,20.72
2022-08-03T02:27:58.013Z,20.64
2022-08-03T02:30:31.531Z,20.64
2022-08-03T02:32:59.248Z,20.60
2022-08-03T02:35:28.568Z,20.56
2022-08-03T02:38:01.061Z,20.57
2022-08-03T02:40:29.688Z,20.55
2022-08-03T02:42:59.521Z,20.51
2022-08-03T02:45:27.742Z,20.51
2022-08-03T02:47:58.094Z,20.47
2022-08-03T02:50:25.896Z,20.41
2022-08-03T02:52:53.934Z,20.40
2022-08-03T02:55:22.839Z,20.42
2022-08-03T02:57:50.321Z,20.40
2022-08-03T03:00:27.573Z,20.44
2022-08-03T03:02:57.898Z,20.40
2022-08-03T03:05:52.873Z,20.39
2022-08-03T03:08:18.017Z,20.37
2022-08-03T03:10:46.506Z,20.37
2022-08-03T03:13:15.501Z,20.35
2022-08-03T03:15:44.173Z,20.34
2022-08-03T03:18:11.279Z,20.29
2022-08-03T03:20:40.840Z,20.28
2022-08-03T03:23:09.101Z,20.24
2022-08-03T03:25:36.251Z,20.30
2022-08-03T03:28:03.709Z,20.25
2022-08-03T03:30:34.176Z,20.15
2022-08-03T03:33:00.939Z,20.13
2022-08-03T03:35:28.061Z,20.13
2022-08-03T03:37:54.777Z,20.12
2022-08-03T03:40:22.246Z,20.06
2022-08-03T03:42:50.052Z,20.01
2022-08-03T03:45:16.997Z,19.92
2022-08-03T03:47:43.686Z,19.90
2022-08-03T03:50:11.005Z,19.92
2022-08-03T03:52:37.571Z,19.98
2022-08-03T03:55:04.287Z,19.97
2022-08-03T03:57:30.733Z,19.93
2022-08-03T03:59:57.149Z,19.94
2022-08-03T04:02:23.851Z,19.89
2022-08-03T04:05:08.934Z,19.88
2022-08-03T04:08:28.692Z,19.86
2022-08-03T04:11:14.777Z,19.90
2022-08-03T04:13:47.374Z,19.85
2022-08-03T04:16:18.185Z,19.85
2022-08-03T04:18:54.558Z,19.83
2022-08-03T04:21:23.517Z,19.84
2022-08-03T04:23:52.986Z,19.85
2022-08-03T04:26:22.659Z,19.82
2022-08-03T04:28:51.338Z,19.82
2022-08-03T04:31:20.406Z,19.74
2022-08-03T04:33:47.401Z,19.74
2022-08-03T04:36:18.876Z,19.74
2022-08-03T04:38:59.339Z,19.77
2022-08-03T04:41:27.353Z,19.70
2022-08-03T04:43:56.100Z,19.71
2022-08-03T04:46:26.215Z,19.71
2022-08-03T04:48:53.140Z,19.72
2022-08-03T04:51:20.154Z,19.66
2022-08-03T04:53:46.676Z,19.70
2022-08-03T04:56:13.233Z,19.69
2022-08-03T04:58:40.233Z,19.69
2022-08-03T05:01:07.159Z,19.68
2022-08-03T05:03:33.664Z,19.71
2022-08-03T05:06:01.577Z,19.70
2022-08-03T05:08:36.018Z,19.73
2022-08-03T05:11:12.969Z,19.74
2022-08-03T05:13:39.352Z,19.69
2022-08-03T05:16:05.755Z,19.67
2022-08-03T05:18:32.259Z,19.67
2022-08-03T05:20:58.758Z,19.70
2022-08-03T05:23:25.161Z,19.73
2022-08-03T05:25:51.615Z,19.70
2022-08-03T05:28:18.064Z,19.71
2022-08-03T05:30:44.675Z,19.66
2022-08-03T05:33:11.303Z,19.67
2022-08-03T05:35:57.938Z,19.70
2022-08-03T05:38:33.117Z,19.72
2022-08-03T05:41:21.590Z,19.69
2022-08-03T05:43:49.060Z,19.74
2022-08-03T05:46:15.585Z,19.82
2022-08-03T05:48:42.594Z,19.87
2022-08-03T05:51:11.432Z,19.88
2022-08-03T05:53:39.715Z,20.12
2022-08-03T05:56:14.895Z,20.40
2022-08-03T05:58:48.434Z,20.66
2022-08-03T06:01:16.290Z,20.75
2022-08-03T06:03:42.905Z,20.88
2022-08-03T06:06:09.600Z,20.93
2022-08-03T06:08:36.078Z,20.76
2022-08-03T06:11:03.265Z,20.60
2022-08-03T06:13:29.749Z,20.55
2022-08-03T06:15:56.276Z,20.69
2022-08-03T06:18:24.470Z,20.70
2022-08-03T06:20:52.207Z,20.79
2022-08-03T06:23:19.404Z,20.81
2022-08-03T06:25:47.363Z,20.76
2022-08-03T06:28:42.413Z,20.88
2022-08-03T06:31:01.149Z,20.90
2022-08-03T06:34:30.757Z,20.87
2022-08-03T06:36:14.415Z,20.88
2022-08-03T06:38:40.979Z,20.84
2022-08-03T06:41:07.519Z,20.74
2022-08-03T06:43:37.405Z,20.77
2022-08-03T06:46:05.376Z,20.89
2022-08-03T06:48:32.376Z,20.94
2022-08-03T06:50:59.289Z,20.95
2022-08-03T06:53:26.136Z,21.05
2022-08-03T06:55:54.846Z,21.00
2022-08-03T06:58:22.312Z,21.05
2022-08-03T07:00:48.821Z,21.06
2022-08-03T07:03:15.612Z,21.15
2022-08-03T07:05:43.893Z,21.26
2022-08-03T07:08:10.533Z,21.34
2022-08-03T07:10:37.252Z,21.41
2022-08-03T07:13:04.561Z,21.47
2022-08-03T07:15:38.279Z,21.47
2022-08-03T07:18:17.616Z,21.50
2022-08-03T07:20:55.612Z,21.57
2022-08-03T07:23:22.005Z,21.61
2022-08-03T07:25:48.434Z,21.66
2022-08-03T07:28:14.952Z,21.65
2022-08-03T07:30:41.384Z,21.65
2022-08-03T07:33:07.863Z,21.72
2022-08-03T07:35:34.347Z,21.84
2022-08-03T07:38:00.825Z,21.95
2022-08-03T07:40:30.726Z,21.98
2022-08-03T07:42:59.003Z,22.09
2022-08-03T07:45:26.538Z,22.19
2022-08-03T07:47:54.320Z,22.25
2022-08-03T07:50:22.174Z,22.33
2022-08-03T07:52:53.076Z,22.37
2022-08-03T07:55:22.558Z,22.51
2022-08-03T07:58:06.477Z,22.63
2022-08-03T08:00:36.841Z,22.66
2022-08-03T08:03:04.899Z,22.70
2022-08-03T08:05:31.740Z,22.77
2022-08-03T08:07:58.648Z,22.88
2022-08-03T08:10:25.500Z,22.94
2022-08-03T08:12:52.412Z,22.91
2022-08-03T08:15:18.901Z,22.99
2022-08-03T08:17:50.159Z,23.13
2022-08-03T08:20:25.228Z,23.23
2022-08-03T08:23:01.553Z,23.34
2022-08-03T08:25:30.195Z,23.50
2022-08-03T08:28:29.831Z,23.63
2022-08-03T08:30:43.678Z,23.68
2022-08-03T08:33:15.698Z,23.74
2022-08-03T08:35:50.483Z,23.86
2022-08-03T08:38:16.894Z,23.86
2022-08-03T08:40:43.427Z,23.78
2022-08-03T08:43:09.881Z,23.84
2022-08-03T08:45:37.533Z,23.92
2022-08-03T08:48:08.117Z,23.91
2022-08-03T08:50:37.289Z,23.95
2022-08-03T08:53:07.157Z,24.07
2022-08-03T08:55:59.131Z,24.12
2022-08-03T08:58:24.586Z,24.15
2022-08-03T09:00:51.578Z,24.23
2022-08-03T09:03:22.573Z,24.28
2022-08-03T09:05:56.610Z,24.36
2022-08-03T09:08:23.626Z,24.55
2022-08-03T09:10:50.337Z,24.60
2022-08-03T09:13:17.039Z,24.61
2022-08-03T09:16:00.646Z,24.51
2022-08-03T09:18:32.669Z,24.52
2022-08-03T09:21:32.255Z,24.62
2022-08-03T09:24:05.710Z,24.56
2022-08-03T09:26:36.056Z,24.60
2022-08-03T09:29:13.778Z,24.67
2022-08-03T09:31:44.330Z,24.76
2022-08-03T09:34:15.965Z,24.90
2022-08-03T09:36:50.754Z,25.11
2022-08-03T09:39:19.380Z,25.20
2022-08-03T09:41:49.326Z,25.22
2022-08-03T09:44:24.211Z,25.22
2022-08-03T09:46:55.625Z,25.33
2022-08-03T09:49:22.912Z,25.44
2022-08-03T09:52:32.529Z,25.58
2022-08-03T09:54:36.328Z,25.55
2022-08-03T09:57:03.070Z,25.56
2022-08-03T09:59:32.036Z,25.69
2022-08-03T10:02:00.487Z,25.59
2022-08-03T10:04:27.625Z,25.55
2022-08-03T10:07:09.553Z,25.64
2022-08-03T10:09:37.046Z,25.80
2022-08-03T10:12:13.768Z,25.88
2022-08-03T10:14:42.118Z,25.98
2022-08-03T10:17:09.727Z,26.04
2022-08-03T10:19:36.588Z,26.21
2022-08-03T10:22:07.789Z,26.34
2022-08-03T10:24:36.398Z,26.39
2022-08-03T10:27:07.130Z,26.41
2022-08-03T10:29:47.186Z,26.47
2022-08-03T10:32:30.119Z,26.41
2022-08-03T10:35:20.932Z,26.45
2022-08-03T10:38:09.736Z,26.41
2022-08-03T10:40:48.597Z,26.60
2022-08-03T10:43:23.169Z,26.69
2022-08-03T10:45:51.071Z,26.69
2022-08-03T10:48:19.411Z,26.64
2022-08-03T10:50:48.448Z,26.63
2022-08-03T10:53:16.633Z,26.82
2022-08-03T10:56:05.892Z,26.98
2022-08-03T10:58:56.832Z,27.21
2022-08-03T11:02:00.288Z,27.32
2022-08-03T11:04:29.523Z,27.18
2022-08-03T11:07:23.514Z,27.28
2022-08-03T11:09:52.385Z,27.19
2022-08-03T11:12:32.959Z,27.36
2022-08-03T11:15:05.762Z,27.27
2022-08-03T11:17:33.902Z,27.40
2022-08-03T11:20:13.615Z,27.48
2022-08-03T11:22:54.538Z,27.66
2022-08-03T11:25:53.223Z,27.74
2022-08-03T11:28:25.975Z,27.87
2022-08-03T11:30:53.325Z,27.89
2022-08-03T11:33:30.574Z,27.96
2022-08-03T11:36:01.894Z,27.86
2022-08-03T11:38:28.372Z,27.93
2022-08-03T11:40:55.170Z,27.96
2022-08-03T11:43:31.626Z,27.86
2022-08-03T11:45:59.409Z,27.89
2022-08-03T11:48:28.380Z,28.06
2022-08-03T11:50:54.904Z,28.23
2022-08-03T11:53:21.427Z,28.33
2022-08-03T11:55:53.102Z,28.47
2022-08-03T11:59:15.301Z,28.56
2022-08-03T12:01:12.500Z,28.62
2022-08-03T12:03:39.026Z,28.49
2022-08-03T12:06:10.581Z,28.41
2022-08-03T12:08:37.153Z,28.43
2022-08-03T12:11:06.667Z,28.61
2022-08-03T12:14:26.992Z,28.86
2022-08-03T12:16:28.762Z,29.02
2022-08-03T12:18:57.341Z,29.13
2022-08-03T12:21:24.927Z,29.18
2022-08-03T12:23:57.270Z,29.35
2022-08-03T12:26:23.697Z,29.96
2022-08-03T12:28:50.380Z,30.57
2022-08-03T12:31:17.145Z,30.26
2022-08-03T12:34:03.161Z,29.72
2022-08-03T12:36:35.036Z,29.59
2022-08-03T12:39:04.241Z,29.54
2022-08-03T12:41:36.722Z,29.57
2022-08-03T12:44:05.309Z,29.64
2022-08-03T12:46:47.418Z,29.55
2022-08-03T12:49:17.303Z,29.50
2022-08-03T12:51:43.706Z,29.59
2022-08-03T12:54:16.845Z,29.59
2022-08-03T12:57:16.190Z,29.68
2022-08-03T12:59:53.306Z,29.62
2022-08-03T13:02:26.012Z,29.52
2022-08-03T13:04:54.225Z,29.39
2022-08-03T13:07:22.171Z,29.33
2022-08-03T13:09:49.754Z,29.46
2022-08-03T13:12:18.527Z,29.51
2022-08-03T13:14:48.081Z,29.52
2022-08-03T13:17:16.819Z,29.65
2022-08-03T13:19:43.863Z,29.71
2022-08-03T13:22:28.857Z,29.77
2022-08-03T13:24:57.468Z,29.62
2022-08-03T13:28:11.075Z,29.68
2022-08-03T13:30:21.058Z,29.62
2022-08-03T13:32:58.577Z,29.79
2022-08-03T13:35:25.353Z,29.95
2022-08-03T13:37:51.791Z,30.16
2022-08-03T13:40:18.322Z,30.24
2022-08-03T13:42:44.715Z,30.33
2022-08-03T13:45:11.463Z,30.47
2022-08-03T13:47:37.972Z,30.60
2022-08-03T13:50:04.927Z,30.42
2022-08-03T13:52:32.842Z,30.26
2022-08-03T13:55:00.070Z,30.23
2022-08-03T13:58:19.001Z,30.18
2022-08-03T14:00:26.686Z,30.09
2022-08-03T14:03:01.866Z,30.09
2022-08-03T14:05:32.258Z,30.25
2022-08-03T14:08:03.832Z,30.29
2022-08-03T14:10:32.159Z,30.25
2022-08-03T14:13:00.264Z,30.44
2022-08-03T14:15:28.455Z,30.61
2022-08-03T14:17:55.172Z,30.57
2022-08-03T14:20:36.882Z,30.47
2022-08-03T14:23:06.736Z,30.08
2022-08-03T14:25:49.851Z,30.01
2022-08-03T14:28:18.515Z,29.96
2022-08-03T14:30:45.127Z,30.10
2022-08-03T14:33:11.822Z,30.18
2022-08-03T14:35:38.251Z,30.30
2022-08-03T14:38:04.711Z,30.56
2022-08-03T14:40:34.061Z,30.73
2022-08-03T14:43:00.553Z,30.69
2022-08-03T14:45:26.996Z,30.63
2022-08-03T14:50:33.566Z,30.92
2022-08-03T14:50:47.005Z,31.26
2022-08-03T14:53:17.580Z,31.40
2022-08-03T14:55:50.020Z,31.41
2022-08-03T14:58:19.766Z,31.41
2022-08-03T15:00:49.214Z,31.45
2022-08-03T15:03:16.889Z,31.30
2022-08-03T15:05:43.773Z,31.27
2022-08-03T15:08:10.167Z,31.26
2022-08-03T15:10:43.757Z,31.50
2022-08-03T15:13:11.991Z,31.45
2022-08-03T15:15:38.524Z,31.22
2022-08-03T15:18:05.018Z,31.15
2022-08-03T15:20:43.344Z,31.39
2022-08-03T15:23:11.554Z,31.42
2022-08-03T15:26:03.597Z,31.64
2022-08-03T15:28:24.461Z,31.75
2022-08-03T15:30:54.335Z,31.37
2022-08-03T15:33:20.885Z,31.88
2022-08-03T15:35:47.761Z,32.04
2022-08-03T15:38:14.382Z,31.63
2022-08-03T15:40:41.262Z,31.25
2022-08-03T15:43:07.973Z,31.01
2022-08-03T15:45:36.647Z,30.80
2022-08-03T15:48:07.015Z,30.67
2022-08-03T15:50:33.664Z,30.49
2022-08-03T15:53:00.134Z,30.38
2022-08-03T15:55:27.229Z,30.36
2022-08-03T15:59:03.435Z,30.27
2022-08-03T16:00:41.649Z,30.05
2022-08-03T16:03:08.150Z,30.07
2022-08-03T16:05:35.186Z,30.12
2022-08-03T16:08:06.211Z,30.22
2022-08-03T16:10:33.559Z,31.57
2022-08-03T16:13:00.317Z,32.83
2022-08-03T16:15:27.155Z,33.02
2022-08-03T16:17:53.716Z,32.23
2022-08-03T16:20:30.931Z,31.45
2022-08-03T16:23:00.579Z,30.83
2022-08-03T16:25:28.209Z,30.51
2022-08-03T16:28:00.450Z,30.34
2022-08-03T16:30:34.052Z,30.48
2022-08-03T16:33:00.584Z,30.55
2022-08-03T16:35:27.010Z,30.41
2022-08-03T16:37:56.870Z,30.26
2022-08-03T16:40:24.960Z,30.17
2022-08-03T16:42:51.651Z,30.08
2022-08-03T16:45:18.285Z,30.03
2022-08-03T16:47:44.774Z,29.99
2022-08-03T16:50:18.988Z,29.92
2022-08-03T16:52:48.352Z,29.94
2022-08-03T16:55:18.441Z,29.86
2022-08-03T16:58:03.345Z,29.81
2022-08-03T17:00:33.182Z,29.74
2022-08-03T17:03:04.386Z,29.68
2022-08-03T17:05:32.660Z,29.63
2022-08-03T17:08:15.802Z,29.64
2022-08-03T17:10:45.126Z,29.68
2022-08-03T17:13:21.798Z,29.72
2022-08-03T17:15:58.013Z,29.73
2022-08-03T17:18:34.031Z,29.68
2022-08-03T17:21:05.037Z,29.63
2022-08-03T17:23:44.327Z,29.57
2022-08-03T17:26:21.242Z,29.47
2022-08-03T17:28:57.353Z,29.51
2022-08-03T17:31:31.312Z,29.51
2022-08-03T17:34:04.271Z,29.43
2022-08-03T17:37:02.647Z,29.46
2022-08-03T17:39:30.879Z,29.42
2022-08-03T17:42:00.739Z,29.44
2022-08-03T17:44:35.082Z,29.42
2022-08-03T17:47:08.135Z,29.44
2022-08-03T17:49:40.044Z,29.40
2022-08-03T17:52:34.882Z,29.46
2022-08-03T17:55:57.602Z,29.47
2022-08-03T17:58:15.989Z,29.40
2022-08-03T18:01:04.753Z,29.39
2022-08-03T18:03:58.326Z,29.41
2022-08-03T18:06:30.601Z,29.39
2022-08-03T18:09:04.686Z,29.43
2022-08-03T18:11:35.638Z,29.42
2022-08-03T18:14:17.214Z,29.43
2022-08-03T18:16:49.084Z,29.34
2022-08-03T18:19:16.896Z,29.23
2022-08-03T18:22:02.749Z,29.24
2022-08-03T18:24:30.809Z,29.15
2022-08-03T18:27:03.142Z,29.15
2022-08-03T18:29:30.575Z,29.11
2022-08-03T18:32:06.807Z,29.06
2022-08-03T18:34:41.104Z,29.04
2022-08-03T18:37:26.008Z,29.02
2022-08-03T18:39:57.973Z,28.98
2022-08-03T18:42:26.233Z,28.87
2022-08-03T18:44:56.128Z,28.83
2022-08-03T18:47:52.069Z,28.78
2022-08-03T18:50:22.503Z,28.64
2022-08-03T18:52:59.377Z,28.59
2022-08-03T18:55:35.809Z,28.49
2022-08-03T18:58:05.106Z,28.45
2022-08-03T19:03:24.163Z,28.33
2022-08-03T19:06:09.457Z,28.26
2022-08-03T19:08:49.351Z,28.19
2022-08-03T19:11:28.293Z,28.17
2022-08-03T19:13:59.220Z,28.06
2022-08-03T19:16:38.797Z,28.03
2022-08-03T19:19:10.578Z,27.99
2022-08-03T19:21:41.280Z,27.85
2022-08-03T19:24:13.582Z,27.85
2022-08-03T19:26:41.319Z,27.85
2022-08-03T19:31:59.781Z,27.79
2022-08-03T19:34:29.241Z,27.74
2022-08-03T19:36:58.295Z,27.70
2022-08-03T19:39:25.648Z,27.72
2022-08-03T19:42:08.142Z,27.71
2022-08-03T19:44:38.604Z,27.62
2022-08-03T19:47:11.222Z,27.55
2022-08-03T19:50:06.001Z,27.49
2022-08-03T19:52:39.497Z,27.52
2022-08-03T19:55:12.133Z,27.42
2022-08-03T19:57:42.292Z,27.36
2022-08-03T20:00:12.284Z,27.37
2022-08-03T20:02:41.323Z,27.34
2022-08-03T20:05:14.863Z,27.31
2022-08-03T20:07:47.456Z,27.28
2022-08-03T20:10:15.864Z,27.24
2022-08-03T20:12:44.549Z,27.23
2022-08-03T20:15:22.227Z,27.22
2022-08-03T20:17:56.390Z,27.16
2022-08-03T20:20:32.609Z,27.10
2022-08-03T20:23:03.695Z,26.99
2022-08-03T20:25:48.647Z,26.98
2022-08-03T20:28:50.551Z,26.80
2022-08-03T20:31:20.103Z,26.78
2022-08-03T20:33:49.250Z,26.66
2022-08-03T20:36:17.792Z,26.71
2022-08-03T20:38:48.324Z,26.74
2022-08-03T20:41:17.860Z,26.73
2022-08-03T20:43:44.828Z,26.62
2022-08-03T20:46:29.621Z,26.61
2022-08-03T20:48:59.638Z,26.57
2022-08-03T20:51:50.626Z,26.55
2022-08-03T20:54:29.820Z,26.52
2022-08-03T20:57:03.633Z,26.48
2022-08-03T20:59:46.984Z,26.43
2022-08-03T21:02:19.220Z,26.44
2022-08-03T21:04:47.421Z,26.41
2022-08-03T21:07:24.194Z,26.41
2022-08-03T21:09:55.488Z,26.34
2022-08-03T21:12:48.144Z,26.31
2022-08-03T21:13:02.204Z,27.84
2022-08-03T21:13:09.235Z,28.46
2022-08-03T21:16:02.402Z,26.29
2022-08-03T21:18:11.011Z,26.26
2022-08-03T21:20:38.951Z,26.20
2022-08-03T21:23:08.854Z,26.07
2022-08-03T21:25:36.207Z,26.07
2022-08-03T21:28:07.569Z,26.01
2022-08-03T21:30:35.006Z,25.93
2022-08-03T21:33:01.759Z,25.89
2022-08-03T21:35:28.511Z,25.91
2022-08-03T21:38:13.660Z,25.87
2022-08-03T21:40:41.028Z,25.86
2022-08-03T21:43:07.966Z,25.84
2022-08-03T21:45:48.299Z,25.82
2022-08-03T21:48:16.588Z,25.69
2022-08-03T21:50:43.983Z,25.69
2022-08-03T21:53:11.278Z,25.67
2022-08-03T21:55:40.076Z,25.66
2022-08-03T21:58:06.853Z,25.64
2022-08-03T22:00:34.850Z,25.61
2022-08-03T22:03:15.286Z,25.56
2022-08-03T22:05:44.767Z,25.54
2022-08-03T22:08:13.570Z,25.47
2022-08-03T22:10:43.053Z,25.43
2022-08-03T22:13:09.585Z,25.41
2022-08-03T22:15:36.096Z,25.23
2022-08-03T22:18:03.724Z,25.28
2022-08-03T22:20:30.320Z,25.18
2022-08-03T22:23:01.674Z,25.10
2022-08-03T22:25:31.393Z,25.12
2022-08-03T22:28:01.428Z,25.13
2022-08-03T22:30:29.253Z,25.03
2022-08-03T22:32:56.301Z,25.06
2022-08-03T22:35:24.957Z,24.96
2022-08-03T22:37:54.143Z,24.93
2022-08-03T22:40:21.251Z,24.93
2022-08-03T22:42:52.498Z,24.88
2022-08-03T22:46:07.771Z,24.81
2022-08-03T22:48:08.114Z,24.86
2022-08-03T22:50:34.966Z,24.82
2022-08-03T22:53:01.629Z,24.80
2022-08-03T22:55:28.862Z,24.74
2022-08-03T22:57:56.143Z,24.78
2022-08-03T23:00:23.875Z,24.78
2022-08-03T23:02:51.755Z,24.69
2022-08-03T23:06:01.900Z,24.67
2022-08-03T23:08:14.635Z,24.61
2022-08-03T23:10:46.743Z,24.55
2022-08-03T23:13:16.565Z,24.51
2022-08-03T23:15:55.668Z,24.51
2022-08-03T23:18:23.515Z,24.43
2022-08-03T23:20:52.748Z,24.42
2022-08-03T23:23:20.541Z,24.30
2022-08-03T23:25:49.612Z,24.28
2022-08-03T23:28:16.582Z,24.37
2022-08-03T23:30:44.662Z,24.39
2022-08-03T23:33:16.489Z,24.31
2022-08-03T23:36:28.113Z,24.33
2022-08-03T23:38:48.907Z,24.26
2022-08-03T23:41:18.690Z,24.22
2022-08-03T23:43:53.523Z,24.19
2022-08-03T23:46:25.763Z,24.19
2022-08-03T23:48:53.835Z,24.20
2022-08-03T23:51:34.866Z,24.12
2022-08-03T23:54:20.123Z,24.11
2022-08-03T23:57:05.007Z,24.10
2022-08-03T23:59:50.455Z,23.99
